Time;durP1;ratioP1;P1;durP2;ratioP2;P2;SDS_P1;SDS_P2;PMS_P1;PMS_P2;Temp;Humidity;BMP_temperature;BMP_pressure;BME280_temperature;BME280_humidity;BME280_pressure;Samples;Min_cycle;Max_cycle;Signal;HPM_P1;HPM_P2
2022/04/28 00:00:49;;;;;;;12.00;1.77;;;;;;;14.60;59.48;100826.00;2094559;28;20044;-75
2022/04/28 00:02:14;;;;;;;7.65;1.10;;;;;;;14.60;59.78;100828.66;2094062;28;20143;-74
2022/04/28 00:03:36;;;;;;;8.32;1.98;;;;;;;14.62;59.84;100833.97;2098907;28;20029;-75
2022/04/28 00:04:57;;;;;;;6.60;1.45;;;;;;;14.62;60.00;100826.00;2094134;28;20520;-75
2022/04/28 00:06:20;;;;;;;6.63;1.33;;;;;;;14.62;59.88;100833.97;2098358;28;20044;-74
2022/04/28 00:07:42;;;;;;;8.27;1.33;;;;;;;14.61;59.86;100827.78;2093712;28;20041;-75
2022/04/28 00:09:05;;;;;;;4.25;1.35;;;;;;;14.62;59.85;100829.56;2093085;28;20037;-75
2022/04/28 00:10:28;;;;;;;8.48;1.38;;;;;;;14.60;59.85;100830.44;2095900;28;20056;-75
2022/04/28 00:11:52;;;;;;;5.97;1.25;;;;;;;14.60;59.91;100833.09;2101184;28;20040;-74
2022/04/28 00:13:15;;;;;;;10.30;1.48;;;;;;;14.61;59.85;100824.22;2093333;28;20044;-74
2022/04/28 00:14:36;;;;;;;8.20;1.10;;;;;;;14.61;60.07;100826.88;2098925;28;20412;-74
2022/04/28 00:15:59;;;;;;;10.98;1.80;;;;;;;14.60;60.05;100823.34;2096113;28;20110;-74
2022/04/28 00:17:22;;;;;;;10.40;1.67;;;;;;;14.63;59.97;100823.34;2105051;28;20423;-74
2022/04/28 00:18:45;;;;;;;10.77;2.65;;;;;;;14.65;60.00;100829.53;2088069;28;20130;-74
2022/04/28 00:20:09;;;;;;;5.30;1.38;;;;;;;14.64;59.98;100822.44;2093893;28;20438;-75
2022/04/28 00:21:30;;;;;;;14.00;1.83;;;;;;;14.64;60.04;100826.88;2093950;28;20475;-75
2022/04/28 00:22:53;;;;;;;8.35;1.48;;;;;;;14.61;60.06;100827.78;2096262;28;20435;-75
2022/04/28 00:24:15;;;;;;;9.90;2.25;;;;;;;14.58;60.21;100825.09;2102398;28;20135;-75
2022/04/28 00:25:37;;;;;;;9.73;1.42;;;;;;;14.58;60.36;100830.41;2099365;28;20047;-74
2022/04/28 00:26:59;;;;;;;7.57;1.23;;;;;;;14.57;60.43;100831.28;2089711;28;20056;-75
2022/04/28 00:28:21;;;;;;;11.20;2.42;;;;;;;14.57;60.40;100822.47;2090192;28;20032;-75
2022/04/28 00:29:43;;;;;;;8.00;1.42;;;;;;;14.55;60.39;100822.47;2091847;28;20053;-75
2022/04/28 00:31:05;;;;;;;8.35;1.65;;;;;;;14.51;60.60;100822.44;2088166;28;20045;-75
2022/04/28 00:32:30;;;;;;;12.55;3.55;;;;;;;14.50;60.61;100828.66;2093582;28;20048;-75
2022/04/28 00:33:52;;;;;;;8.63;1.70;;;;;;;14.48;60.75;100830.41;2087036;28;20053;-75
2022/04/28 00:35:15;;;;;;;4.82;1.38;;;;;;;14.47;60.80;100823.34;2090364;28;20057;-75
2022/04/28 00:36:36;;;;;;;8.38;1.60;;;;;;;14.49;60.84;100833.09;2091367;28;20052;-75
2022/04/28 00:37:59;;;;;;;15.05;1.67;;;;;;;14.50;60.84;100820.69;2095923;28;20131;-75
2022/04/28 00:39:20;;;;;;;11.35;2.33;;;;;;;14.51;60.96;100820.66;2091173;28;20139;-75
2022/04/28 00:40:43;;;;;;;6.15;1.10;;;;;;;14.50;60.94;100820.69;2099535;28;20144;-74
2022/04/28 00:42:09;;;;;;;13.10;2.00;;;;;;;14.52;60.96;100819.78;2093817;28;20093;-75
2022/04/28 00:43:32;;;;;;;10.25;1.60;;;;;;;14.54;60.90;100830.44;2094940;28;20147;-74
2022/04/28 00:44:55;;;;;;;11.93;2.00;;;;;;;14.53;60.92;100820.69;2101232;28;20069;-74
2022/04/28 00:46:17;;;;;;;11.75;1.77;;;;;;;14.50;60.91;100818.94;2093968;28;20072;-75
2022/04/28 00:51:04;;;;;;;6.50;1.67;;;;;;;14.42;61.11;100806.50;2096762;28;20040;-74
2022/04/28 00:52:29;;;;;;;15.27;1.85;;;;;;;14.43;61.17;100806.53;2093422;28;20103;-74
2022/04/28 00:53:51;;;;;;;7.97;1.25;;;;;;;14.46;61.19;100805.63;2099481;28;20044;-74
2022/04/28 00:55:15;;;;;;;11.88;2.22;;;;;;;14.48;61.01;100801.22;2101020;28;20075;-74
2022/04/28 00:56:37;;;;;;;14.52;1.88;;;;;;;14.49;60.91;100800.31;2100888;28;20054;-74
2022/04/28 00:57:59;;;;;;;;;;;;;;;14.48;60.90;100793.22;2094267;28;20084;-74
2022/04/28 00:59:23;;;;;;;8.30;1.83;;;;;;;14.44;60.96;100810.06;2102413;28;19920;-74
2022/04/28 01:00:46;;;;;;;12.10;1.85;;;;;;;14.38;61.02;100796.75;2093772;28;20056;-74
2022/04/28 01:02:10;;;;;;;11.43;1.35;;;;;;;14.32;61.08;100793.19;2099297;28;20134;-74
2022/04/28 01:03:33;;;;;;;6.70;1.58;;;;;;;14.30;61.28;100800.28;2095740;28;20056;-74
2022/04/28 01:04:56;;;;;;;11.38;1.73;;;;;;;14.28;61.39;100801.16;2093783;28;20075;-74
2022/04/28 01:06:17;;;;;;;8.13;1.17;;;;;;;14.22;61.66;100798.50;2095928;28;20040;-74
2022/04/28 01:07:40;;;;;;;16.40;2.08;;;;;;;14.21;61.71;100799.38;2092622;28;20137;-75
2022/04/28 01:09:02;;;;;;;8.90;1.90;;;;;;;14.22;61.79;100799.38;2092859;28;20134;-74
2022/04/28 01:10:25;;;;;;;11.15;1.42;;;;;;;14.25;61.72;100796.72;2090553;28;20036;-74
2022/04/28 01:11:47;;;;;;;6.70;2.17;;;;;;;14.27;61.74;100800.25;2090503;28;20052;-74
2022/04/28 01:13:24;;;;;;;8.18;1.63;;;;;;;14.27;61.89;100788.75;2095368;28;20041;-74
2022/04/28 01:15:00;;;;;;;7.43;1.50;;;;;;;14.22;61.86;100788.75;2095231;28;20052;-74
2022/04/28 01:16:22;;;;;;;9.98;1.90;;;;;;;14.18;62.07;100789.63;2091666;28;20032;-74
2022/04/28 01:17:45;;;;;;;8.57;1.90;;;;;;;14.20;62.02;100782.56;2093454;28;20053;-75
2022/04/28 01:19:09;;;;;;;12.95;1.90;;;;;;;14.24;61.94;100788.78;2091155;28;20048;-75
2022/04/28 01:20:33;;;;;;;12.90;2.03;;;;;;;14.24;61.91;100788.78;2094940;28;20055;-74
2022/04/28 01:21:56;;;;;;;7.30;2.20;;;;;;;14.28;61.91;100788.78;2101920;28;20143;-75
2022/04/28 01:23:19;;;;;;;6.35;2.03;;;;;;;14.30;61.84;100794.09;2096087;28;20052;-74
2022/04/28 01:24:41;;;;;;;9.15;2.20;;;;;;;14.29;61.81;100787.88;2090585;28;20041;-74
2022/04/28 01:26:05;;;;;;;6.95;1.48;;;;;;;14.22;62.01;100791.41;2091652;28;20056;-74
2022/04/28 01:27:29;;;;;;;7.70;1.98;;;;;;;14.16;61.98;100788.75;2090709;28;20080;-74
2022/04/28 01:28:50;;;;;;;8.02;1.67;;;;;;;14.16;62.14;100786.09;2099855;28;20040;-74
2022/04/28 01:30:14;;;;;;;9.20;1.50;;;;;;;14.18;62.17;100789.63;2093670;28;20059;-75
2022/04/28 01:31:43;;;;;;;7.45;1.60;;;;;;;14.17;62.09;100782.56;2091592;28;20139;-75
2022/04/28 01:33:06;;;;;;;12.40;1.95;;;;;;;14.16;62.14;100780.78;2093646;28;20053;-75
2022/04/28 01:34:28;;;;;;;;;;;;;;;14.14;62.08;100776.34;2089445;28;20055;-74
2022/04/28 01:35:49;;;;;;;11.35;2.10;;;;;;;14.12;62.18;100779.00;2099229;28;20039;-74
2022/04/28 01:37:14;;;;;;;14.38;2.25;;;;;;;14.17;62.12;100779.91;2093694;28;20171;-74
2022/04/28 01:38:37;;;;;;;13.80;2.05;;;;;;;14.20;62.08;100776.34;2091271;28;20045;-74
2022/04/28 01:40:00;;;;;;;6.00;1.52;;;;;;;14.22;62.03;100786.09;2101910;28;20041;-74
2022/04/28 01:41:22;;;;;;;10.18;2.42;;;;;;;14.20;62.07;100782.56;2101922;28;20048;-74
2022/04/28 01:42:47;;;;;;;15.90;2.13;;;;;;;14.22;61.99;100780.78;2092672;28;20041;-74
2022/04/28 01:44:12;;;;;;;11.10;2.08;;;;;;;14.22;62.00;100787.88;2091128;28;20050;-74
2022/04/28 01:45:34;;;;;;;14.85;2.47;;;;;;;14.19;61.99;100779.88;2097470;28;20060;-74
2022/04/28 01:47:05;;;;;;;8.88;2.55;;;;;;;14.16;62.06;100783.44;2096178;28;20048;-74
2022/04/28 01:48:40;;;;;;;9.85;1.98;;;;;;;14.14;62.25;100779.91;2099139;28;20044;-74
2022/04/28 01:50:11;;;;;;;8.50;1.48;;;;;;;14.17;62.24;100777.25;2095976;28;20044;-75
2022/04/28 01:55:31;;;;;;;8.45;1.80;;;;;;;14.10;62.19;100764.88;2089391;28;20049;-75
2022/04/28 01:57:26;;;;;;;9.15;2.35;;;;;;;14.04;62.46;100764.84;2089474;28;20036;-75
2022/04/28 01:59:03;;;;;;;14.57;2.55;;;;;;;14.04;62.39;100771.94;2102838;28;20100;-75
2022/04/28 02:00:50;;;;;;;11.07;2.00;;;;;;;14.05;62.38;100771.91;2081543;28;20072;-74
2022/04/28 02:02:13;;;;;;;7.28;1.73;;;;;;;14.02;62.54;100765.72;2087754;28;20535;-75
2022/04/28 02:03:36;;;;;;;5.68;1.95;;;;;;;13.95;62.63;100773.69;2092097;28;20127;-74
2022/04/28 02:05:00;;;;;;;8.35;2.30;;;;;;;13.93;62.89;100769.25;2095162;28;20048;-74
2022/04/28 02:06:25;;;;;;;9.57;3.78;;;;;;;13.89;63.05;100759.50;2093391;28;20459;-75
2022/04/28 02:07:47;;;;;;;6.47;2.17;;;;;;;13.90;63.11;100766.59;2094508;28;20563;-74
2022/04/28 02:09:12;;;;;;;5.50;1.52;;;;;;;13.94;63.14;100753.31;2093624;28;20040;-74
2022/04/28 02:10:33;;;;;;;8.98;2.28;;;;;;;13.98;63.07;100755.09;2097554;28;20139;-74
2022/04/28 02:11:57;;;;;;;8.40;2.97;;;;;;;14.04;62.99;100756.88;2097453;28;20052;-74
2022/04/28 02:13:51;;;;;;;10.50;2.25;;;;;;;14.05;62.77;100750.66;2103953;28;20040;-74
2022/04/28 02:15:20;;;;;;;9.25;2.15;;;;;;;14.05;62.85;100755.09;2088861;28;20676;-74
2022/04/28 02:17:12;;;;;;;8.30;2.47;;;;;;;14.02;62.72;100750.69;2087651;28;20068;-74
2022/04/28 02:18:33;;;;;;;9.85;2.83;;;;;;;13.99;62.77;100745.34;2093891;28;20079;-74
2022/04/28 02:19:56;;;;;;;7.28;2.47;;;;;;;14.00;62.90;100747.13;2093681;28;20520;-74
2022/04/28 02:21:17;;;;;;;11.40;2.38;;;;;;;14.03;62.86;100741.84;2102997;28;20139;-74
2022/04/28 02:22:41;;;;;;;7.78;1.67;;;;;;;14.03;62.84;100746.25;2094711;28;20059;-74
2022/04/28 02:24:05;;;;;;;10.95;1.85;;;;;;;14.04;62.94;100742.72;2092156;28;20047;-74
2022/04/28 02:25:29;;;;;;;8.82;2.28;;;;;;;14.06;62.86;100741.84;2094723;28;20037;-74
2022/04/28 02:26:53;;;;;;;10.25;2.33;;;;;;;14.06;62.91;100747.13;2087082;28;20041;-74
2022/04/28 02:28:14;;;;;;;20.17;2.42;;;;;;;14.04;62.88;100745.38;2087534;28;20048;-75
2022/04/28 02:29:38;;;;;;;8.85;2.47;;;;;;;14.05;63.02;100749.78;2086621;28;20076;-74
2022/04/28 02:30:59;;;;;;;5.28;1.52;;;;;;;14.03;62.96;100738.31;2087291;28;20045;-74
2022/04/28 02:32:22;;;;;;;7.95;2.03;;;;;;;14.02;63.03;100744.50;2090004;28;20124;-74
2022/04/28 02:33:44;;;;;;;7.53;1.70;;;;;;;13.98;63.03;100744.47;2098360;28;20070;-75
2022/04/28 02:35:10;;;;;;;10.18;2.47;;;;;;;13.92;63.19;100746.22;2086778;28;20131;-74
2022/04/28 02:36:33;;;;;;;11.63;2.05;;;;;;;13.87;63.50;100743.56;2094777;28;20052;-74
2022/04/28 02:37:55;;;;;;;8.95;1.77;;;;;;;13.83;63.65;100743.59;2097300;28;20072;-75
2022/04/28 02:39:18;;;;;;;6.97;1.70;;;;;;;13.85;63.74;100741.78;2094856;28;20047;-74
2022/04/28 02:40:46;;;;;;;9.93;2.03;;;;;;;13.87;63.67;100743.56;2095340;28;20481;-74
2022/04/28 02:42:09;;;;;;;7.13;2.08;;;;;;;13.88;63.80;100742.69;2098887;28;20504;-74
2022/04/28 02:43:30;;;;;;;10.40;2.35;;;;;;;13.85;63.70;100744.44;2094743;28;20056;-74
2022/04/28 02:45:11;;;;;;;18.42;2.38;;;;;;;13.84;63.72;100745.34;2095555;28;20051;-74
2022/04/28 02:46:38;;;;;;;10.23;2.80;;;;;;;13.85;63.73;100747.09;2102322;28;20111;-73
2022/04/28 02:48:03;;;;;;;12.60;2.00;;;;;;;13.84;63.80;100754.19;2093943;28;20056;-74
2022/04/28 02:49:25;;;;;;;9.27;2.70;;;;;;;13.80;64.09;100743.56;2075245;28;20632;-74
2022/04/28 02:50:50;;;;;;;10.82;2.58;;;;;;;13.78;64.11;100754.19;2084452;28;20474;-74
2022/04/28 02:52:13;;;;;;;11.85;2.10;;;;;;;13.78;64.14;100751.53;2101280;28;20139;-74
2022/04/28 02:53:37;;;;;;;7.43;1.52;;;;;;;13.81;64.05;100754.19;2094236;28;20046;-74
2022/04/28 02:54:58;;;;;;;6.50;2.17;;;;;;;13.85;64.14;100753.28;2083825;28;20487;-74
2022/04/28 02:56:23;;;;;;;14.32;2.35;;;;;;;13.88;63.97;100753.31;2085943;28;20052;-74
2022/04/28 02:57:45;;;;;;;9.43;1.95;;;;;;;13.89;63.86;100760.41;2100097;28;20052;-74
2022/04/28 02:59:09;;;;;;;5.72;2.25;;;;;;;13.93;63.93;100761.28;2088905;28;20049;-74
2022/04/28 03:00:30;;;;;;;13.95;3.25;;;;;;;13.91;63.96;100761.25;2088649;28;20048;-74
2022/04/28 03:01:58;;;;;;;8.48;2.28;;;;;;;13.90;63.84;100761.28;2093359;28;20058;-74
2022/04/28 03:03:21;;;;;;;10.73;2.28;;;;;;;13.91;63.95;100765.72;2099824;28;20036;-74
2022/04/28 03:04:43;;;;;;;11.10;1.83;;;;;;;13.91;63.92;100761.25;2101061;28;20103;-74
2022/04/28 03:11:07;;;;;;;14.10;3.35;;;;;;;13.82;63.66;100768.34;2088703;28;20048;-74
2022/04/28 03:12:33;;;;;;;12.10;2.67;;;;;;;13.82;63.88;100768.34;2092019;28;20048;-74
2022/04/28 03:14:05;;;;;;;11.70;2.63;;;;;;;13.78;64.01;100769.22;2095612;28;20146;-74
2022/04/28 03:15:28;;;;;;;8.38;2.35;;;;;;;13.76;64.01;100763.91;2092297;28;20551;-74
2022/04/28 03:16:52;;;;;;;7.72;3.00;;;;;;;13.75;64.02;100762.13;2086521;28;20102;-73
2022/04/28 03:18:14;;;;;;;14.25;2.72;;;;;;;13.78;64.10;100774.53;2089213;28;20060;-74
2022/04/28 03:19:36;;;;;;;10.18;2.55;;;;;;;13.78;64.15;100779.84;2082768;28;20085;-74
2022/04/28 03:20:59;;;;;;;15.07;2.65;;;;;;;13.76;64.16;100773.63;2088638;28;20079;-73
2022/04/28 03:22:21;;;;;;;17.25;2.63;;;;;;;13.75;64.24;100778.06;2091541;28;20041;-74
2022/04/28 03:23:43;;;;;;;16.20;3.15;;;;;;;13.73;64.29;100771.84;2098813;28;20545;-74
2022/04/28 03:25:08;;;;;;;8.70;2.50;;;;;;;13.74;64.20;100775.38;2094767;28;20044;-74
2022/04/28 03:26:31;;;;;;;13.80;2.22;;;;;;;13.73;64.26;100781.56;2094147;28;20056;-74
2022/04/28 03:27:56;;;;;;;10.57;2.47;;;;;;;13.74;64.37;100780.69;2086078;28;20113;-74
2022/04/28 03:29:19;;;;;;;9.65;2.42;;;;;;;13.71;64.43;100780.69;2096971;28;20086;-74
2022/04/28 03:30:41;;;;;;;9.52;2.58;;;;;;;13.70;64.47;100784.22;2085907;28;20429;-74
2022/04/28 03:32:11;;;;;;;11.85;2.53;;;;;;;13.65;64.66;100786.00;2092380;28;20085;-74
2022/04/28 03:33:42;;;;;;;8.93;2.20;;;;;;;13.61;64.78;100779.75;2110056;27;20403;-74
2022/04/28 03:35:05;;;;;;;18.45;2.72;;;;;;;13.61;64.87;100789.47;2099430;28;20053;-74
2022/04/28 03:38:09;;;;;;;14.00;3.38;;;;;;;13.72;64.87;100790.44;2096551;28;20047;-74
2022/04/28 03:39:35;;;;;;;11.90;2.70;;;;;;;13.79;64.77;100789.53;2086292;28;20456;-74
2022/04/28 03:40:57;;;;;;;15.63;2.95;;;;;;;13.84;64.60;100786.03;2091251;28;20040;-74
2022/04/28 03:42:20;;;;;;;19.60;2.63;;;;;;;13.88;64.48;100794.88;2099935;28;20101;-74
2022/04/28 03:43:44;;;;;;;15.80;2.95;;;;;;;13.92;64.39;100791.34;2094221;28;20052;-74
2022/04/28 03:45:09;;;;;;;10.73;2.75;;;;;;;13.94;64.36;100786.94;2089794;28;20102;-74
2022/04/28 03:46:36;;;;;;;16.33;2.92;;;;;;;13.97;64.42;100797.56;2092991;28;20044;-73
2022/04/28 03:47:59;;;;;;;15.70;3.15;;;;;;;14.02;64.36;100794.91;2091451;28;20056;-74
2022/04/28 03:49:21;;;;;;;14.80;3.70;;;;;;;14.08;64.44;100798.47;2091839;28;20056;-74
2022/04/28 03:50:45;;;;;;;11.00;2.80;;;;;;;14.12;64.36;100802.00;2085964;28;20155;-74
2022/04/28 03:52:08;;;;;;;11.63;2.70;;;;;;;14.16;64.55;100798.50;2085487;28;20052;-74
2022/04/28 03:53:32;;;;;;;9.40;2.63;;;;;;;14.21;64.54;100794.06;2087613;28;20064;-74
2022/04/28 03:54:54;;;;;;;13.52;2.15;;;;;;;14.21;64.83;100792.28;2090839;28;20055;-74
2022/04/28 03:56:18;;;;;;;12.27;2.97;;;;;;;14.22;64.88;100794.06;2094198;28;20040;-74
2022/04/28 03:57:41;;;;;;;12.90;3.63;;;;;;;14.33;64.87;100794.97;2091500;28;20048;-74
2022/04/28 03:59:07;;;;;;;9.93;3.40;;;;;;;14.49;64.79;100802.97;2094165;28;20086;-74
2022/04/28 04:00:49;;;;;;;14.90;3.05;;;;;;;14.63;64.55;100793.25;2092683;28;20048;-74
2022/04/28 04:02:20;;;;;;;9.38;2.30;;;;;;;14.80;64.41;100799.41;2095488;28;20049;-74
2022/04/28 04:03:44;;;;;;;9.48;2.60;;;;;;;14.93;64.08;100809.16;2094333;28;20094;-74
2022/04/28 04:05:09;;;;;;;12.40;3.03;;;;;;;15.04;63.90;100803.78;2094177;28;20063;-74
2022/04/28 04:06:32;;;;;;;10.07;3.17;;;;;;;15.15;63.79;100810.00;2092245;28;20093;-74
2022/04/28 04:08:27;;;;;;;7.25;3.50;;;;;;;15.27;63.62;100804.66;2091850;28;20102;-75
2022/04/28 04:10:06;;;;;;;13.63;2.85;;;;;;;15.35;63.45;100807.28;2087870;28;20041;-75
2022/04/28 04:11:32;;;;;;;13.70;2.33;;;;;;;15.38;63.48;100807.25;2094621;28;20041;-74
2022/04/28 04:12:55;;;;;;;17.17;3.33;;;;;;;15.45;63.46;100811.66;2092713;28;20118;-74
2022/04/28 04:14:18;;;;;;;14.63;2.63;;;;;;;15.58;63.45;100810.78;2098376;28;20142;-74
2022/04/28 04:15:40;;;;;;;13.25;2.47;;;;;;;15.72;63.31;100813.38;2102414;28;20071;-74
2022/04/28 04:17:17;;;;;;;9.13;2.30;;;;;;;15.91;63.11;100817.72;2095452;28;20045;-74
2022/04/28 04:18:40;;;;;;;18.42;2.50;;;;;;;16.07;62.78;100810.53;2091253;28;20450;-74
2022/04/28 04:20:09;;;;;;;18.98;4.05;;;;;;;16.23;62.39;100815.72;2093441;28;20048;-73
2022/04/28 04:21:34;;;;;;;16.92;3.17;;;;;;;16.35;61.96;100814.75;2091730;28;20051;-74
2022/04/28 04:22:59;;;;;;;22.63;4.78;;;;;;;16.49;61.84;100820.00;2090804;28;20044;-74
2022/04/28 04:24:21;;;;;;;19.35;4.63;;;;;;;16.63;61.67;100818.13;2093917;28;20037;-75
2022/04/28 04:25:44;;;;;;;14.63;3.13;;;;;;;16.79;61.42;100825.13;2083247;28;20057;-74
2022/04/28 04:27:14;;;;;;;71.40;27.77;;;;;;;16.91;61.12;100825.00;2084694;28;20059;-74
2022/04/28 04:29:03;;;;;;;67.30;26.50;;;;;;;17.04;60.95;100826.66;2100784;28;20093;-74
2022/04/28 04:32:44;;;;;;;189.65;79.38;;;;;;;17.34;60.48;100824.56;2095510;28;20048;-75
2022/04/28 04:34:19;;;;;;;126.63;45.28;;;;;;;17.50;60.45;100827.03;2092355;28;20040;-74
2022/04/28 04:35:40;;;;;;;98.95;37.90;;;;;;;17.68;59.92;100825.06;2090929;28;20052;-74
2022/04/28 04:37:03;;;;;;;60.75;17.40;;;;;;;17.84;59.53;100832.00;2090627;28;20596;-74
2022/04/28 04:38:27;;;;;;;31.90;10.20;;;;;;;18.00;59.09;100828.22;2090414;28;20118;-73
2022/04/28 04:39:50;;;;;;;23.85;6.18;;;;;;;18.16;58.75;100829.78;2091828;28;20052;-74
2022/04/28 04:41:13;;;;;;;17.63;4.82;;;;;;;18.32;58.40;100838.44;2089335;28;20052;-74
2022/04/28 04:42:35;;;;;;;23.02;5.78;;;;;;;18.46;58.03;100841.78;2093028;28;20113;-74
2022/04/28 04:43:58;;;;;;;;;;;;;;;18.58;57.77;100832.72;2093889;28;20173;-73
2022/04/28 04:45:21;;;;;;;14.43;4.70;;;;;;;18.69;57.52;100841.47;2088995;28;19951;-74
2022/04/28 04:47:05;;;;;;;18.17;5.05;;;;;;;18.83;57.09;100834.09;2103717;28;20073;-74
2022/04/28 04:48:31;;;;;;;22.02;6.72;;;;;;;18.91;56.80;100837.50;2101865;28;20669;-74
2022/04/28 04:49:56;;;;;;;20.48;5.97;;;;;;;19.09;56.73;100839.00;2093688;28;20067;-74
2022/04/28 04:51:33;;;;;;;25.75;6.78;;;;;;;19.33;56.25;100834.97;2095012;28;20039;-75
2022/04/28 04:53:25;;;;;;;14.70;3.97;;;;;;;19.59;55.28;100835.38;2098017;28;20051;-75
2022/04/28 04:54:47;;;;;;;20.38;4.38;;;;;;;19.77;54.31;100839.47;2088953;28;20045;-74
2022/04/28 04:56:10;;;;;;;13.90;3.53;;;;;;;19.95;53.63;100840.88;2088114;28;20044;-74
2022/04/28 04:57:32;;;;;;;14.52;2.88;;;;;;;20.12;53.35;100838.72;2091069;28;20127;-75
2022/04/28 04:58:56;;;;;;;16.15;3.00;;;;;;;20.33;53.12;100848.09;2085751;28;20130;-74
2022/04/28 05:00:20;;;;;;;14.35;3.03;;;;;;;20.53;52.42;100845.84;2090871;28;20044;-75
2022/04/28 05:02:01;;;;;;;17.13;3.22;;;;;;;20.77;51.81;100841.66;2104589;28;20048;-75
2022/04/28 05:03:44;;;;;;;18.60;3.10;;;;;;;21.04;51.45;100849.03;2104565;28;20055;-75
2022/04/28 05:05:29;;;;;;;13.05;2.67;;;;;;;21.29;51.01;100841.22;2096228;28;20087;-74
2022/04/28 05:07:30;;;;;;;17.52;2.65;;;;;;;21.60;50.09;100854.69;2095121;28;20087;-76
2022/04/28 05:08:53;;;;;;;14.05;2.75;;;;;;;21.77;49.99;100850.59;2093870;28;20139;-75
2022/04/28 05:10:16;;;;;;;12.52;3.72;;;;;;;21.98;49.39;100859.88;2091325;28;20417;-75
2022/04/28 05:11:39;;;;;;;14.95;3.33;;;;;;;22.18;48.99;100854.78;2091040;28;20134;-76
2022/04/28 05:13:11;;;;;;;15.48;3.15;;;;;;;22.43;48.55;100857.59;2093086;28;20471;-75
2022/04/28 05:14:43;;;;;;;18.08;3.38;;;;;;;22.65;48.00;100850.56;2098120;28;20048;-75
2022/04/28 05:16:06;;;;;;;19.48;3.92;;;;;;;22.87;47.79;100844.50;2096457;28;20500;-76
2022/04/28 05:17:58;;;;;;;11.90;4.57;;;;;;;23.11;47.28;100848.16;2104547;28;20054;-75
2022/04/28 05:19:30;;;;;;;16.25;4.55;;;;;;;23.33;46.95;100846.50;2093782;28;20718;-75
2022/04/28 05:20:59;;;;;;;18.75;5.55;;;;;;;23.51;46.70;100847.66;2100790;28;20048;-76
2022/04/28 05:22:57;;;;;;;20.15;5.03;;;;;;;23.74;45.82;100856.69;2068809;28;20169;-75
2022/04/28 05:24:28;;;;;;;22.95;5.35;;;;;;;23.92;45.57;100851.53;2072902;28;20068;-76
2022/04/28 05:26:02;;;;;;;16.20;4.22;;;;;;;24.20;45.15;100855.84;2103494;28;20044;-75
2022/04/28 05:27:44;;;;;;;22.42;4.93;;;;;;;24.52;44.48;100851.88;2104924;28;20084;-74
2022/04/28 05:29:25;;;;;;;27.20;7.30;;;;;;;24.82;43.90;100851.53;2103694;28;20071;-75
2022/04/28 05:31:11;;;;;;;19.90;5.10;;;;;;;25.09;43.28;100842.31;2104831;28;20408;-74
2022/04/28 05:33:09;;;;;;;15.00;4.43;;;;;;;25.40;42.91;100848.13;2069765;28;20455;-74
2022/04/28 05:34:56;;;;;;;14.88;3.38;;;;;;;25.62;41.99;100847.19;2075391;28;20133;-75
2022/04/28 05:36:20;;;;;;;15.30;3.80;;;;;;;25.79;41.57;100848.22;2100390;28;20050;-74
2022/04/28 05:37:44;;;;;;;16.52;3.30;;;;;;;26.01;41.07;100844.47;2093124;28;20044;-75
2022/04/28 05:39:07;;;;;;;16.58;2.95;;;;;;;26.19;40.62;100844.50;2090114;28;20058;-74
2022/04/28 05:40:30;;;;;;;13.85;2.17;;;;;;;26.38;39.71;100843.66;2100084;28;20052;-74
2022/04/28 05:41:53;;;;;;;21.30;3.53;;;;;;;26.48;39.11;100851.25;2085886;28;20567;-74
2022/04/28 05:46:35;;;;;;;12.88;3.10;;;;;;;26.97;38.51;100846.16;2093423;28;20051;-74
2022/04/28 05:47:58;;;;;;;17.33;4.05;;;;;;;27.12;38.61;100849.88;2100095;28;20048;-75
2022/04/28 05:49:20;;;;;;;;;;;;;;;27.14;38.64;100853.41;2103897;28;20048;-75
2022/04/28 05:50:45;;;;;;;;;;;;;;;27.19;39.12;100846.78;2094751;28;20022;-75
2022/04/28 05:52:09;;;;;;;11.85;2.10;;;;;;;27.24;38.16;100844.69;2095275;28;19921;-75
2022/04/28 05:53:33;;;;;;;15.18;3.28;;;;;;;27.23;37.07;100852.94;2101743;28;20085;-75
2022/04/28 05:54:59;;;;;;;15.00;3.05;;;;;;;27.26;35.83;100844.63;2092560;28;20102;-75
2022/04/28 05:56:23;;;;;;;12.98;2.83;;;;;;;27.30;34.94;100844.41;2089174;28;20056;-75
2022/04/28 05:57:49;;;;;;;13.90;3.25;;;;;;;27.31;34.65;100846.13;2101320;28;20099;-76
2022/04/28 05:59:13;;;;;;;15.65;2.35;;;;;;;27.34;34.58;100848.69;2088629;28;20077;-75
2022/04/28 06:00:38;;;;;;;6.15;1.35;;;;;;;27.37;34.20;100845.81;2093374;28;20052;-75
2022/04/28 06:02:02;;;;;;;18.73;2.30;;;;;;;27.45;34.27;100853.53;2091885;28;20036;-75
2022/04/28 06:03:25;;;;;;;12.00;2.55;;;;;;;27.47;34.38;100854.34;2083569;28;20049;-75
2022/04/28 06:04:59;;;;;;;10.73;2.28;;;;;;;27.47;34.34;100857.06;2096990;28;20365;-75
2022/04/28 06:06:24;;;;;;;11.93;1.95;;;;;;;27.52;34.24;100857.72;2086341;28;20052;-75
2022/04/28 06:07:51;;;;;;;14.05;3.38;;;;;;;27.56;34.45;100861.16;2093283;28;20049;-75
2022/04/28 06:09:14;;;;;;;9.65;1.85;;;;;;;27.67;33.97;100856.91;2090130;28;20052;-75
2022/04/28 06:10:37;;;;;;;11.50;2.20;;;;;;;27.75;33.71;100864.66;2093671;28;20051;-75
2022/04/28 06:12:00;;;;;;;12.13;2.53;;;;;;;27.71;34.06;100857.63;2094493;28;20102;-76
2022/04/28 06:13:32;;;;;;;15.60;2.88;;;;;;;27.63;34.01;100854.47;2095215;28;20036;-75
2022/04/28 06:15:21;;;;;;;11.82;2.83;;;;;;;27.58;34.05;100854.69;2105918;28;20036;-76
2022/04/28 06:17:19;;;;;;;11.32;1.80;;;;;;;27.66;33.93;100855.16;2104162;28;20048;-75
2022/04/28 06:18:42;;;;;;;8.90;1.40;;;;;;;27.65;33.77;100858.81;2090046;28;20598;-75
2022/04/28 06:20:25;;;;;;;10.98;1.83;;;;;;;27.63;33.87;100857.16;2102488;28;20442;-75
2022/04/28 06:22:02;;;;;;;10.93;1.65;;;;;;;27.67;33.60;100851.50;2093784;28;20496;-76
2022/04/28 06:23:28;;;;;;;10.65;1.35;;;;;;;27.63;33.42;100849.03;2085498;28;20504;-75
2022/04/28 06:24:52;;;;;;;11.02;1.60;;;;;;;27.62;33.29;100850.00;2085338;28;20139;-75
2022/04/28 06:26:16;;;;;;;9.77;1.35;;;;;;;27.53;33.10;100856.78;2092225;28;20142;-76
2022/04/28 06:27:38;;;;;;;11.63;3.28;;;;;;;27.60;33.33;100850.06;2093379;28;20156;-75
2022/04/28 06:29:01;;;;;;;9.65;1.45;;;;;;;27.72;33.38;100852.13;2100028;28;20562;-76
2022/04/28 06:30:23;;;;;;;10.60;1.23;;;;;;;27.85;33.03;100855.03;2088909;28;20136;-75
2022/04/28 06:31:50;;;;;;;10.82;1.55;;;;;;;27.96;33.21;100851.75;2088462;28;20045;-75
2022/04/28 06:33:20;;;;;;;8.23;1.63;;;;;;;27.96;33.07;100851.75;2102137;28;20492;-76
2022/04/28 06:34:50;;;;;;;10.55;1.85;;;;;;;27.87;33.14;100857.66;2092654;28;20685;-76
2022/04/28 06:36:14;;;;;;;11.75;1.42;;;;;;;27.89;33.30;100850.34;2095920;28;20068;-75
2022/04/28 06:37:40;;;;;;;9.32;1.40;;;;;;;27.93;33.28;100852.78;2091354;28;20075;-76
2022/04/28 06:39:04;;;;;;;10.77;1.70;;;;;;;27.95;33.09;100861.72;2094872;28;20044;-75
2022/04/28 06:40:27;;;;;;;8.35;1.77;;;;;;;28.11;33.12;100853.59;2094925;28;20054;-75
2022/04/28 06:41:49;;;;;;;13.55;1.65;;;;;;;28.17;33.16;100858.72;2094751;28;20469;-75
2022/04/28 06:43:20;;;;;;;14.63;1.83;;;;;;;28.16;33.01;100866.97;2087538;28;20045;-76
2022/04/28 06:45:01;;;;;;;11.40;1.80;;;;;;;28.10;32.85;100852.72;2104529;28;20044;-76
2022/04/28 06:46:41;;;;;;;10.52;1.50;;;;;;;28.13;32.99;100854.41;2105545;28;20143;-75
2022/04/28 06:48:22;;;;;;;12.50;1.52;;;;;;;28.23;33.33;100861.09;2096479;28;20048;-75
2022/04/28 06:50:05;;;;;;;12.95;2.58;;;;;;;28.29;33.24;100859.91;2108698;28;20048;-76
2022/04/28 06:52:00;;;;;;;7.78;1.40;;;;;;;28.32;32.73;100863.31;2097179;28;20069;-76
2022/04/28 06:54:00;;;;;;;9.25;1.30;;;;;;;28.15;33.38;100857.94;2097130;28;20060;-75
2022/04/28 06:55:26;;;;;;;8.43;1.48;;;;;;;28.08;33.27;100857.38;2088259;28;20044;-76
2022/04/28 06:56:49;;;;;;;14.10;2.60;;;;;;;28.06;33.58;100858.41;2089008;28;20617;-76
2022/04/28 06:58:15;;;;;;;11.60;3.30;;;;;;;28.00;33.24;100853.31;2090240;28;20045;-76
2022/04/28 06:59:39;;;;;;;12.98;2.38;;;;;;;27.88;32.99;100859.44;2100680;28;20463;-75
2022/04/28 07:01:06;;;;;;;5.22;1.27;;;;;;;27.81;32.80;100861.59;2095219;28;20080;-76
2022/04/28 07:02:30;;;;;;;11.70;1.35;;;;;;;27.63;32.70;100866.19;2091786;28;20067;-75